Time;durP1;ratioP1;P1;durP2;ratioP2;P2;SDS_P1;SDS_P2;PMS_P1;PMS_P2;Temp;Humidity;BMP_temperature;BMP_pressure;BME280_temperature;BME280_humidity;BME280_pressure;Samples;Min_cycle;Max_cycle;Signal;HPM_P1;HPM_P2
2021/12/29 00:00:31;;;;;;;;;;;;;;;25.44;54.65;96409.33;624744;227;64670;-67
2021/12/29 00:03:00;;;;;;;;;;;;;;;25.45;56.18;96404.73;624766;227;64773;-67
2021/12/29 00:05:28;;;;;;;;;;;;;;;25.44;55.60;96414.70;624734;227;65139;-68
2021/12/29 00:07:56;;;;;;;;;;;;;;;25.44;55.58;96411.23;624774;227;67338;-68
2021/12/29 00:10:24;;;;;;;;;;;;;;;25.42;54.79;96416.91;624735;227;64815;-68
2021/12/29 00:12:53;;;;;;;;;;;;;;;25.41;54.82;96420.72;624753;227;64856;-68
2021/12/29 00:15:25;;;;;;;;;;;;;;;25.41;55.38;96415.34;624768;227;65044;-67
2021/12/29 00:17:52;;;;;;;;;;;;;;;25.41;55.50;96417.23;624758;227;64869;-69
2021/12/29 00:20:23;;;;;;;;;;;;;;;25.40;59.07;96411.08;624734;227;65208;-68
2021/12/29 00:22:50;;;;;;;;;;;;;;;25.38;54.92;96413.28;624899;227;64537;-67
2021/12/29 00:25:18;;;;;;;;;;;;;;;25.37;57.04;96416.27;624806;227;64592;-67
2021/12/29 00:27:45;;;;;;;;;;;;;;;25.36;56.71;96412.01;624814;227;63060;-68
2021/12/29 00:30:14;;;;;;;;;;;;;;;25.35;57.27;96416.59;624765;227;64713;-68
2021/12/29 00:32:58;;;;;;;;;;;;;;;25.35;56.36;96410.44;624824;227;47843;-67
2021/12/29 00:35:45;;;;;;;;;;;;;;;25.33;56.51;96410.73;624931;227;37585;-68
2021/12/29 00:38:29;;;;;;;;;;;;;;;25.33;58.71;96413.42;624926;227;49839;-68
2021/12/29 00:41:15;;;;;;;;;;;;;;;25.31;55.92;96410.25;624917;227;42497;-68
2021/12/29 00:44:01;;;;;;;;;;;;;;;25.30;58.76;96405.98;624960;227;38310;-64
2021/12/29 00:46:52;;;;;;;;;;;;;;;25.29;56.87;96403.59;624913;227;38476;-63
2021/12/29 00:49:18;;;;;;;;;;;;;;;25.28;59.50;96400.12;624763;226;66586;-64
2021/12/29 00:51:45;;;;;;;;;;;;;;;25.26;58.00;96402.33;625708;226;65127;-64
2021/12/29 00:54:13;;;;;;;;;;;;;;;25.24;58.58;96399.18;625937;226;67288;-63
2021/12/29 00:56:40;;;;;;;;;;;;;;;25.25;58.59;96406.91;625974;226;67435;-64
2021/12/29 00:59:07;;;;;;;;;;;;;;;25.22;57.34;96394.09;625958;226;65015;-63
2021/12/29 01:01:35;;;;;;;;;;;;;;;25.22;61.17;96394.09;625942;226;67186;-64
2021/12/29 01:04:03;;;;;;;;;;;;;;;25.21;59.27;96395.22;625936;226;67015;-63
2021/12/29 01:06:30;;;;;;;;;;;;;;;25.21;57.73;96389.05;625937;226;62915;-64
2021/12/29 01:08:58;;;;;;;;;;;;;;;25.20;59.63;96387.45;625956;226;64983;-63
2021/12/29 01:11:26;;;;;;;;;;;;;;;25.21;57.27;96383.67;625997;226;65012;-63
2021/12/29 01:13:53;;;;;;;;;;;;;;;25.20;56.52;96376.70;625961;226;62688;-63
2021/12/29 01:19:06;;;;;;;;;;;;;;;25.17;58.77;96371.95;625932;226;67010;-69
2021/12/29 01:21:34;;;;;;;;;;;;;;;25.16;60.20;96373.06;625891;226;62859;-70
2021/12/29 01:24:02;;;;;;;;;;;;;;;25.15;60.49;96380.31;625956;226;65274;-67
2021/12/29 01:26:30;;;;;;;;;;;;;;;25.14;60.14;96367.95;625922;226;67212;-67
2021/12/29 01:28:57;;;;;;;;;;;;;;;25.13;60.61;96369.07;625919;226;65056;-67
2021/12/29 01:31:25;;;;;;;;;;;;;;;25.13;59.63;96379.83;625893;226;64822;-63
2021/12/29 01:33:52;;;;;;;;;;;;;;;25.12;61.27;96375.53;625934;226;66860;-63
2021/12/29 01:36:20;;;;;;;;;;;;;;;25.10;61.53;96363.51;625998;226;65178;-64
2021/12/29 01:38:47;;;;;;;;;;;;;;;25.10;60.58;96367.02;626001;226;66980;-63
2021/12/29 01:41:15;;;;;;;;;;;;;;;25.11;60.63;96362.42;625956;226;67091;-63
2021/12/29 01:43:42;;;;;;;;;;;;;;;25.10;61.15;96367.02;625897;224;64865;-63
2021/12/29 01:46:10;;;;;;;;;;;;;;;25.10;60.42;96360.81;625937;226;67277;-63
2021/12/29 01:48:38;;;;;;;;;;;;;;;25.10;61.53;96360.81;625924;226;66972;-63
2021/12/29 01:51:05;;;;;;;;;;;;;;;25.09;61.05;96359.25;625948;226;62960;-63
2021/12/29 01:53:34;;;;;;;;;;;;;;;25.08;61.63;96353.09;625941;226;65000;-63
2021/12/29 01:56:03;;;;;;;;;;;;;;;25.08;61.34;96357.67;625920;226;67013;-64
2021/12/29 01:58:31;;;;;;;;;;;;;;;25.06;60.51;96349.13;625939;226;62974;-64
2021/12/29 02:01:00;;;;;;;;;;;;;;;25.05;60.15;96342.17;625943;226;65680;-64
2021/12/29 02:03:27;;;;;;;;;;;;;;;25.05;60.10;96347.55;625981;226;66747;-63
2021/12/29 02:05:55;;;;;;;;;;;;;;;25.07;58.27;96350.70;625946;226;64859;-64
2021/12/29 02:08:23;;;;;;;;;;;;;;;25.06;60.68;96349.13;625955;226;64958;-64
2021/12/29 02:10:55;;;;;;;;;;;;;;;25.03;60.90;96361.30;625858;226;67201;-63
2021/12/29 02:13:23;;;;;;;;;;;;;;;25.01;61.80;96358.91;625748;226;62764;-63
2021/12/29 02:15:50;;;;;;;;;;;;;;;25.01;61.08;96358.91;625986;226;67194;-64
2021/12/29 02:18:20;;;;;;;;;;;;;;;25.01;60.88;96358.12;625927;226;66824;-64
2021/12/29 02:20:49;;;;;;;;;;;;;;;25.00;61.11;96354.64;625930;226;64879;-64
2021/12/29 02:23:26;;;;;;;;;;;;;;;24.99;60.70;96360.31;625897;226;67241;-64
2021/12/29 02:25:51;;;;;;;;;;;;;;;24.98;59.10;96359.53;625726;226;67083;-64
2021/12/29 02:28:20;;;;;;;;;;;;;;;24.98;61.59;96361.44;625963;226;65044;-64
2021/12/29 02:30:47;;;;;;;;;;;;;;;24.96;60.32;96356.39;625890;226;66890;-64
2021/12/29 02:33:16;;;;;;;;;;;;;;;24.95;61.53;96348.63;625933;226;66981;-64
2021/12/29 02:35:44;;;;;;;;;;;;;;;24.95;61.16;96354.78;625902;226;65041;-63
2021/12/29 02:38:22;;;;;;;;;;;;;;;24.94;60.40;96342.46;625916;226;65298;-64
2021/12/29 02:40:51;;;;;;;;;;;;;;;24.93;61.20;96340.86;625952;226;67051;-64
2021/12/29 02:43:22;;;;;;;;;;;;;;;24.95;59.16;96340.56;625980;226;62962;-64
2021/12/29 02:45:51;;;;;;;;;;;;;;;24.94;61.25;96337.08;625893;225;64982;-64
2021/12/29 02:48:19;;;;;;;;;;;;;;;24.93;62.76;96340.86;625908;226;64999;-64
2021/12/29 02:50:46;;;;;;;;;;;;;;;24.90;60.40;96338.02;625865;226;65059;-64
2021/12/29 02:53:14;;;;;;;;;;;;;;;24.90;61.79;96329.95;625964;226;67369;-64
2021/12/29 02:55:41;;;;;;;;;;;;;;;24.90;61.58;96319.20;625964;226;67044;-64
2021/12/29 02:58:09;;;;;;;;;;;;;;;24.87;60.87;96315.23;626001;226;64982;-64
2021/12/29 03:00:36;;;;;;;;;;;;;;;24.89;58.79;96323.79;625910;226;67150;-64
2021/12/29 03:03:05;;;;;;;;;;;;;;;24.87;60.93;96311.77;625882;226;64793;-64
2021/12/29 03:05:33;;;;;;;;;;;;;;;24.88;63.14;96311.47;625671;226;64716;-64
2021/12/29 03:08:00;;;;;;;;;;;;;;;24.86;62.57;96310.98;625925;226;67300;-64
2021/12/29 03:10:28;;;;;;;;;;;;;;;24.84;62.16;96305.13;625959;226;66855;-64
2021/12/29 03:12:55;;;;;;;;;;;;;;;24.85;62.77;96300.53;625917;226;62974;-64
2021/12/29 03:15:23;;;;;;;;;;;;;;;24.83;62.62;96291.98;625909;226;67135;-64
2021/12/29 03:17:50;;;;;;;;;;;;;;;24.84;61.67;96299.74;625934;226;66739;-64
2021/12/29 03:20:18;;;;;;;;;;;;;;;24.85;61.22;96301.31;625912;226;66110;-64
2021/12/29 03:22:45;;;;;;;;;;;;;;;24.84;60.84;96301.64;625961;226;67242;-64
2021/12/29 03:25:13;;;;;;;;;;;;;;;24.83;60.35;96292.80;625908;226;67393;-64
2021/12/29 03:27:40;;;;;;;;;;;;;;;24.82;60.82;96291.20;625423;226;65013;-64
2021/12/29 03:30:08;;;;;;;;;;;;;;;24.82;61.17;96291.20;625897;226;67210;-64
2021/12/29 03:32:41;;;;;;;;;;;;;;;24.83;61.62;96291.98;625908;226;67018;-64
2021/12/29 03:35:05;;;;;;;;;;;;;;;24.79;59.37;96284.55;625861;225;64930;-64
2021/12/29 03:37:32;;;;;;;;;;;;;;;24.79;61.78;96276.48;625913;226;67229;-64
2021/12/29 03:40:00;;;;;;;;;;;;;;;24.79;60.30;96278.39;625933;226;67089;-64
2021/12/29 03:42:27;;;;;;;;;;;;;;;24.76;61.13;96281.70;625931;226;65034;-64
2021/12/29 03:44:55;;;;;;;;;;;;;;;24.78;59.18;96271.44;625933;226;66767;-64
2021/12/29 03:47:22;;;;;;;;;;;;;;;24.76;60.06;96262.89;625972;226;66934;-64
2021/12/29 03:49:50;;;;;;;;;;;;;;;24.76;59.91;96252.94;625845;226;65041;-64
2021/12/29 03:52:17;;;;;;;;;;;;;;;24.77;59.38;96253.72;625910;226;67425;-64
2021/12/29 03:54:45;;;;;;;;;;;;;;;24.77;61.23;96251.03;625935;226;67098;-64
2021/12/29 03:57:12;;;;;;;;;;;;;;;24.75;60.63;96254.05;625892;226;64986;-64
2021/12/29 03:59:40;;;;;;;;;;;;;;;24.74;60.99;96248.97;625930;226;67236;-64
2021/12/29 04:02:07;;;;;;;;;;;;;;;24.73;60.41;96248.19;625970;226;67008;-64
2021/12/29 04:04:35;;;;;;;;;;;;;;;24.73;60.54;96239.34;625944;226;64919;-64
2021/12/29 04:07:02;;;;;;;;;;;;;;;24.73;60.85;96233.97;625951;226;67273;-64
2021/12/29 04:09:30;;;;;;;;;;;;;;;24.72;59.71;96243.14;625899;226;67017;-64
2021/12/29 04:11:57;;;;;;;;;;;;;;;24.70;60.71;96238.08;625914;226;62713;-64
2021/12/29 04:14:26;;;;;;;;;;;;;;;24.72;60.87;96232.40;625945;226;65011;-64
2021/12/29 04:16:56;;;;;;;;;;;;;;;24.71;60.64;96225.42;625931;226;67036;-64
2021/12/29 04:19:40;;;;;;;;;;;;;;;24.69;60.64;96230.31;625901;226;65038;-64
2021/12/29 04:21:59;;;;;;;;;;;;;;;24.71;60.10;96230.80;625610;226;65156;-64
2021/12/29 04:24:27;;;;;;;;;;;;;;;24.69;60.71;96243.75;625911;226;64912;-64
2021/12/29 04:26:54;;;;;;;;;;;;;;;24.67;60.44;96229.86;625940;226;62905;-64
2021/12/29 04:29:23;;;;;;;;;;;;;;;24.67;61.00;96233.33;625937;226;64934;-64
2021/12/29 04:31:51;;;;;;;;;;;;;;;24.66;60.93;96239.00;625946;226;66422;-64
2021/12/29 04:34:18;;;;;;;;;;;;;;;24.65;60.04;96237.44;625945;226;64817;-64
2021/12/29 04:36:46;;;;;;;;;;;;;;;24.64;60.52;96242.02;625913;226;66766;-64
2021/12/29 04:39:13;;;;;;;;;;;;;;;24.65;61.70;96242.80;625974;226;66884;-64
2021/12/29 04:41:41;;;;;;;;;;;;;;;24.63;61.32;96239.63;625975;226;62725;-65
2021/12/29 04:44:08;;;;;;;;;;;;;;;24.63;61.72;96240.42;625938;226;64700;-65
2021/12/29 04:46:38;;;;;;;;;;;;;;;24.62;61.46;96238.84;625945;226;66798;-64
2021/12/29 04:49:05;;;;;;;;;;;;;;;24.61;61.11;96231.09;625878;225;62918;-64
2021/12/29 04:51:36;;;;;;;;;;;;;;;24.58;60.84;96227.95;625028;226;66899;-64
2021/12/29 04:54:05;;;;;;;;;;;;;;;24.59;60.99;96232.20;624841;227;67139;-64
2021/12/29 04:56:33;;;;;;;;;;;;;;;24.58;60.96;96237.88;624724;227;62834;-64
2021/12/29 04:59:01;;;;;;;;;;;;;;;24.58;60.23;96241.38;624758;227;64713;-64
2021/12/29 05:01:28;;;;;;;;;;;;;;;24.58;62.18;96244.06;624764;227;67023;-64
2021/12/29 05:03:56;;;;;;;;;;;;;;;24.55;61.38;96255.44;624753;227;65160;-64
2021/12/29 05:09:09;;;;;;;;;;;;;;;24.54;61.92;96269.95;624817;227;67091;-63
2021/12/29 05:11:36;;;;;;;;;;;;;;;24.54;60.63;96271.85;624788;227;64998;-63
2021/12/29 05:14:04;;;;;;;;;;;;;;;24.52;60.67;96256.03;624791;227;67164;-63
2021/12/29 05:16:31;;;;;;;;;;;;;;;24.51;61.54;96243.72;624812;227;66983;-63
2021/12/29 05:18:59;;;;;;;;;;;;;;;24.50;62.09;96252.89;624848;227;65090;-63
2021/12/29 05:21:26;;;;;;;;;;;;;;;24.50;62.04;96262.82;624816;227;64869;-63
2021/12/29 05:23:54;;;;;;;;;;;;;;;24.49;61.32;96250.50;624809;227;66754;-63
2021/12/29 05:26:23;;;;;;;;;;;;;;;24.51;61.51;96248.30;624786;227;63018;-63
2021/12/29 05:28:51;;;;;;;;;;;;;;;24.49;60.82;96245.13;624748;227;67319;-63
2021/12/29 05:31:18;;;;;;;;;;;;;;;24.49;62.63;96247.81;624836;227;66875;-63
2021/12/29 05:33:46;;;;;;;;;;;;;;;24.48;60.84;96252.41;624788;227;64845;-63
2021/12/29 05:36:13;;;;;;;;;;;;;;;24.49;63.49;96251.29;624791;227;67252;-65
2021/12/29 05:38:41;;;;;;;;;;;;;;;24.48;62.17;96244.34;624813;227;66905;-66
2021/12/29 05:41:08;;;;;;;;;;;;;;;24.47;62.25;96242.77;624799;227;65012;-65
2021/12/29 05:43:36;;;;;;;;;;;;;;;24.49;61.47;96239.77;624766;227;67247;-66
2021/12/29 05:46:04;;;;;;;;;;;;;;;24.48;62.01;96244.34;624863;227;66721;-66
2021/12/29 05:48:33;;;;;;;;;;;;;;;24.47;62.09;96242.77;624798;227;65837;-66
2021/12/29 05:51:01;;;;;;;;;;;;;;;24.48;61.25;96247.03;624622;226;67424;-67
2021/12/29 05:53:28;;;;;;;;;;;;;;;24.50;61.74;96252.89;624780;227;67348;-66
2021/12/29 05:55:56;;;;;;;;;;;;;;;24.51;60.75;96264.42;624759;227;65056;-67
2021/12/29 05:58:23;;;;;;;;;;;;;;;24.50;60.29;96268.19;624850;227;67226;-67
2021/12/29 06:00:51;;;;;;;;;;;;;;;24.50;60.83;96282.44;624791;227;67060;-67
2021/12/29 06:03:20;;;;;;;;;;;;;;;24.48;61.08;96281.95;624683;227;62886;-67
2021/12/29 06:05:48;;;;;;;;;;;;;;;24.48;61.68;96281.95;624744;227;65019;-64
2021/12/29 06:08:15;;;;;;;;;;;;;;;24.49;59.11;96288.89;624539;227;64902;-64
2021/12/29 06:10:43;;;;;;;;;;;;;;;24.51;60.42;96293.97;624717;227;62869;-67
2021/12/29 06:13:11;;;;;;;;;;;;;;;24.51;62.18;96297.44;624782;227;64580;-67
2021/12/29 06:15:38;;;;;;;;;;;;;;;24.53;61.43;96299.83;624772;227;64757;-67
2021/12/29 06:18:06;;;;;;;;;;;;;;;24.53;61.92;96311.36;624730;227;65327;-67
2021/12/29 06:20:38;;;;;;;;;;;;;;;24.57;60.69;96312.30;624784;227;67368;-67
2021/12/29 06:23:02;;;;;;;;;;;;;;;24.55;58.58;96311.03;624695;226;64895;-66
2021/12/29 06:25:30;;;;;;;;;;;;;;;24.54;59.01;96315.62;624802;227;62817;-66
2021/12/29 06:27:57;;;;;;;;;;;;;;;24.57;60.72;96316.89;624777;227;64983;-65
2021/12/29 06:30:25;;;;;;;;;;;;;;;24.56;60.30;96326.06;624738;227;64754;-66
2021/12/29 06:32:52;;;;;;;;;;;;;;;24.57;60.48;96322.27;624799;227;65221;-66
2021/12/29 06:35:20;;;;;;;;;;;;;;;24.57;61.46;96322.27;624782;227;67386;-65
2021/12/29 06:37:47;;;;;;;;;;;;;;;24.56;60.13;96320.69;624831;227;66901;-65
2021/12/29 06:40:15;;;;;;;;;;;;;;;24.54;60.13;96320.98;624738;227;65040;-64
2021/12/29 06:42:43;;;;;;;;;;;;;;;24.56;60.25;96329.53;624782;227;67192;-63
2021/12/29 06:45:11;;;;;;;;;;;;;;;24.56;60.33;96323.38;624773;227;67013;-64
2021/12/29 06:47:38;;;;;;;;;;;;;;;24.54;63.92;96330.95;624759;227;66087;-63
2021/12/29 06:50:06;;;;;;;;;;;;;;;24.51;64.16;96337.73;624906;226;67212;-63
2021/12/29 06:52:34;;;;;;;;;;;;;;;24.52;64.25;96335.83;625785;226;67040;-64
2021/12/29 06:55:02;;;;;;;;;;;;;;;24.51;65.70;96335.05;625231;226;65026;-63
2021/12/29 06:57:30;;;;;;;;;;;;;;;24.51;64.24;96335.05;625914;226;64508;-63
2021/12/29 06:59:57;;;;;;;;;;;;;;;24.53;64.65;96335.53;625909;226;64689;-63
2021/12/29 07:02:25;;;;;;;;;;;;;;;24.53;62.99;96338.22;625742;226;62935;-63
2021/12/29 07:04:52;;;;;;;;;;;;;;;24.54;63.15;96339.80;625836;226;64908;-58
2021/12/29 07:07:20;;;;;;;;;;;;;;;24.61;56.13;96339.36;625893;226;65100;-59
2021/12/29 07:09:47;;;;;;;;;;;;;;;24.73;57.48;96344.13;625843;226;62967;-64
2021/12/29 07:12:15;;;;;;;;;;;;;;;24.71;57.61;96343.64;625899;226;67214;-58
2021/12/29 07:14:42;;;;;;;;;;;;;;;24.73;59.06;96346.82;625970;226;67824;-62
2021/12/29 07:17:10;;;;;;;;;;;;;;;24.70;61.90;96350.13;625817;226;63659;-62
2021/12/29 07:19:37;;;;;;;;;;;;;;;24.70;61.06;96347.45;625894;226;67177;-58
2021/12/29 07:22:06;;;;;;;;;;;;;;;24.72;61.39;96342.56;625859;226;66831;-58
2021/12/29 07:24:34;;;;;;;;;;;;;;;24.73;60.50;96344.13;625731;226;65025;-58
2021/12/29 07:27:02;;;;;;;;;;;;;;;24.74;59.69;96340.33;625937;226;66871;-58
2021/12/29 07:29:30;;;;;;;;;;;;;;;24.76;59.97;96340.82;625816;226;66922;-65
2021/12/29 07:32:02;;;;;;;;;;;;;;;24.77;60.17;96337.84;625916;226;43606;-64
2021/12/29 07:34:29;;;;;;;;;;;;;;;24.76;61.44;96341.61;625899;226;67739;-65
2021/12/29 07:36:56;;;;;;;;;;;;;;;24.76;61.59;96335.45;625857;226;67041;-64
2021/12/29 07:39:24;;;;;;;;;;;;;;;24.78;59.67;96334.03;625898;226;65015;-63
2021/12/29 07:41:51;;;;;;;;;;;;;;;24.82;60.40;96331.50;625961;226;67209;-63
2021/12/29 07:44:21;;;;;;;;;;;;;;;24.85;60.00;96330.88;625796;226;67534;-62
2021/12/29 07:46:53;;;;;;;;;;;;;;;24.86;59.95;96329.01;625920;226;65076;-63
2021/12/29 07:49:19;;;;;;;;;;;;;;;24.86;59.82;96321.73;625865;225;67185;-64
2021/12/29 07:51:46;;;;;;;;;;;;;;;24.87;59.68;96319.83;624801;226;67090;-62
2021/12/29 07:54:14;;;;;;;;;;;;;;;24.88;59.47;96326.77;624720;227;64995;-63
2021/12/29 07:56:42;;;;;;;;;;;;;;;24.91;60.76;96337.71;617538;229;67894;-63
2021/12/29 07:59:10;;;;;;;;;;;;;;;24.86;58.90;96329.01;617548;229;66810;-63
2021/12/29 08:01:37;;;;;;;;;;;;;;;24.85;58.35;96330.09;620406;227;65138;-64
2021/12/29 08:04:04;;;;;;;;;;;;;;;24.90;59.18;96317.30;620551;227;67056;-63
2021/12/29 08:06:32;;;;;;;;;;;;;;;24.92;59.52;96322.38;619131;227;67041;-63
2021/12/29 08:09:01;;;;;;;;;;;;;;;24.91;59.60;96337.71;618117;227;43276;-64
2021/12/29 08:11:29;;;;;;;;;;;;;;;24.91;59.35;96326.97;620481;227;67207;-63
2021/12/29 08:13:56;;;;;;;;;;;;;;;24.91;59.98;96335.03;619287;227;67763;-63
2021/12/29 08:16:24;;;;;;;;;;;;;;;24.92;60.49;96335.81;617602;229;65191;-63
2021/12/29 08:18:52;;;;;;;;;;;;;;;24.92;59.87;96344.66;617681;229;67118;-63
2021/12/29 08:21:19;;;;;;;;;;;;;;;24.93;60.73;96337.39;617586;229;67339;-63
2021/12/29 08:23:47;;;;;;;;;;;;;;;24.94;60.86;96331.70;617600;229;64997;-63
2021/12/29 08:26:14;;;;;;;;;;;;;;;24.95;59.95;96332.50;617563;229;67046;-63
2021/12/29 08:28:41;;;;;;;;;;;;;;;24.97;61.20;96338.36;617625;229;67027;-62
2021/12/29 08:31:09;;;;;;;;;;;;;;;24.97;60.64;96343.73;617626;229;65006;-62
2021/12/29 08:33:38;;;;;;;;;;;;;;;24.98;61.21;96342.62;617619;229;67179;-63
2021/12/29 08:36:07;;;;;;;;;;;;;;;24.98;60.72;96343.41;617588;229;66894;-66
2021/12/29 08:38:36;;;;;;;;;;;;;;;24.97;60.11;96343.73;617645;229;65104;-59
2021/12/29 08:41:04;;;;;;;;;;;;;;;24.93;60.20;96334.70;617566;229;66665;-63
2021/12/29 08:43:32;;;;;;;;;;;;;;;24.93;59.25;96335.48;617680;229;66739;-63
2021/12/29 08:45:59;;;;;;;;;;;;;;;24.98;58.96;96332.66;617575;229;65036;-68
2021/12/29 08:48:27;;;;;;;;;;;;;;;25.02;58.68;96333.63;617525;229;65126;-68
2021/12/29 08:50:59;;;;;;;;;;;;;;;25.03;59.70;96337.09;618093;229;64609;-68
2021/12/29 08:53:27;;;;;;;;;;;;;;;25.02;59.48;96328.25;618849;228;46300;-68
2021/12/29 08:55:57;;;;;;;;;;;;;;;25.03;59.76;96329.81;618690;229;68549;-68
2021/12/29 08:58:29;;;;;;;;;;;;;;;25.05;59.62;96326.05;618807;229;66739;-67
2021/12/29 09:00:54;;;;;;;;;;;;;;;25.06;60.75;96320.34;618745;228;64899;-67
2021/12/29 09:03:22;;;;;;;;;;;;;;;25.07;60.93;96326.50;618657;229;64733;-66
2021/12/29 09:05:50;;;;;;;;;;;;;;;25.07;60.41;96329.98;618730;229;64999;-70
2021/12/29 09:08:18;;;;;;;;;;;;;;;25.09;61.54;96333.15;618710;229;63031;-69
2021/12/29 09:10:45;;;;;;;;;;;;;;;25.04;60.73;96330.61;618686;229;64980;-72
2021/12/29 09:13:14;;;;;;;;;;;;;;;25.07;60.14;96326.50;618814;226;66941;-70
2021/12/29 09:15:42;;;;;;;;;;;;;;;25.07;60.84;96324.59;621308;226;65032;-69
2021/12/29 09:18:12;;;;;;;;;;;;;;;25.10;61.04;96315.93;618739;228;47029;-69
2021/12/29 09:20:45;;;;;;;;;;;;;;;25.10;61.58;96310.55;618764;229;67248;-69
2021/12/29 09:23:13;;;;;;;;;;;;;;;25.13;62.07;96303.76;618673;228;48478;-68
2021/12/29 09:25:42;;;;;;;;;;;;;;;25.13;60.91;96306.45;618697;229;65048;-68
2021/12/29 09:28:11;;;;;;;;;;;;;;;25.13;61.68;96299.16;618687;229;66747;-68
2021/12/29 09:30:40;;;;;;;;;;;;;;;25.15;60.78;96293.48;618699;229;65121;-71
2021/12/29 09:33:07;;;;;;;;;;;;;;;25.15;60.90;96293.48;618692;229;64988;-70
2021/12/29 09:35:35;;;;;;;;;;;;;;;25.16;61.29;96278.95;618732;229;67549;-68
2021/12/29 09:38:03;;;;;;;;;;;;;;;25.18;61.16;96279.41;618694;229;65093;-68
2021/12/29 09:40:30;;;;;;;;;;;;;;;25.18;61.00;96272.16;618717;229;68383;-68
2021/12/29 09:42:58;;;;;;;;;;;;;;;25.20;61.68;96263.76;618697;227;66896;-74
2021/12/29 09:45:26;;;;;;;;;;;;;;;25.21;61.17;96262.67;618609;229;65035;-70
2021/12/29 09:47:57;;;;;;;;;;;;;;;25.22;60.91;96258.86;618685;229;67196;-68
2021/12/29 09:50:24;;;;;;;;;;;;;;;25.23;61.69;96260.44;618293;229;67473;-65
2021/12/29 09:52:51;;;;;;;;;;;;;;;25.24;61.73;96246.69;617618;229;62782;-71
2021/12/29 09:55:20;;;;;;;;;;;;;;;25.26;62.29;96249.04;617522;229;65507;-69
2021/12/29 09:57:49;;;;;;;;;;;;;;;25.24;60.94;96249.38;617628;229;64935;-68
2021/12/29 10:00:21;;;;;;;;;;;;;;;25.27;61.35;96249.86;617488;228;64888;-67
2021/12/29 10:02:49;;;;;;;;;;;;;;;25.25;62.00;96244.78;617612;229;67420;-69
2021/12/29 10:05:16;;;;;;;;;;;;;;;25.26;60.93;96240.97;617674;229;66983;-68
2021/12/29 10:07:57;;;;;;;;;;;;;;;25.27;60.69;96245.27;617630;227;45035;-70
2021/12/29 10:10:25;;;;;;;;;;;;;;;25.25;60.99;96240.19;617554;229;64994;-69
2021/12/29 10:12:53;;;;;;;;;;;;;;;25.28;60.50;96229.91;617648;229;67040;-70
2021/12/29 10:15:22;;;;;;;;;;;;;;;25.29;60.73;96236.86;617570;229;64898;-70
2021/12/29 10:17:53;;;;;;;;;;;;;;;25.28;60.15;96233.39;617597;228;64827;-72
2021/12/29 10:20:20;;;;;;;;;;;;;;;25.31;60.66;96226.58;617419;228;64889;-69
2021/12/29 10:22:49;;;;;;;;;;;;;;;25.30;60.69;96228.48;617599;229;62788;-70
2021/12/29 10:25:19;;;;;;;;;;;;;;;25.31;60.64;96219.30;617351;228;64991;-70
2021/12/29 10:27:46;;;;;;;;;;;;;;;25.32;60.26;96223.59;617546;229;64996;-70
2021/12/29 10:30:31;;;;;;;;;;;;;;;25.33;60.18;96227.84;617571;229;62950;-75
2021/12/29 10:33:00;;;;;;;;;;;;;;;25.33;60.53;96227.84;617593;229;67280;-75
2021/12/29 10:35:29;;;;;;;;;;;;;;;25.33;61.06;96225.16;615609;228;66900;-75
2021/12/29 10:37:58;;;;;;;;;;;;;;;25.34;60.82;96220.56;617631;229;64848;-70
2021/12/29 10:40:27;;;;;;;;;;;;;;;25.33;60.66;96219.78;617270;228;67126;-71
2021/12/29 10:42:56;;;;;;;;;;;;;;;25.35;60.55;96214.09;617601;229;66580;-70
2021/12/29 10:45:34;;;;;;;;;;;;;;;25.35;60.51;96219.48;617595;229;63183;-71
2021/12/29 10:48:02;;;;;;;;;;;;;;;25.36;60.70;96205.70;617289;228;65095;-69
2021/12/29 10:50:30;;;;;;;;;;;;;;;25.37;60.50;96211.86;617456;229;67279;-70
2021/12/29 10:52:58;;;;;;;;;;;;;;;25.38;60.63;96206.17;617638;229;63646;-70
2021/12/29 10:55:31;;;;;;;;;;;;;;;25.37;60.72;96209.17;617523;229;67017;-69
2021/12/29 10:58:01;;;;;;;;;;;;;;;25.38;60.32;96205.39;617463;228;64776;-69
2021/12/29 11:00:29;;;;;;;;;;;;;;;25.39;60.93;96206.95;617648;229;65381;-69
2021/12/29 11:02:57;;;;;;;;;;;;;;;25.39;60.61;96196.98;617610;229;67109;-69
2021/12/29 11:05:26;;;;;;;;;;;;;;;25.39;60.94;96202.36;617040;228;66874;-69
2021/12/29 11:07:55;;;;;;;;;;;;;;;25.40;60.87;96193.20;616489;228;65147;-70
2021/12/29 11:10:23;;;;;;;;;;;;;;;25.40;60.82;96198.58;616553;228;64562;-69
2021/12/29 11:12:53;;;;;;;;;;;;;;;25.41;60.96;96191.30;617055;229;64729;-68
2021/12/29 11:15:28;;;;;;;;;;;;;;;25.42;61.01;96190.17;617587;229;62972;-68
2021/12/29 11:17:57;;;;;;;;;;;;;;;25.41;60.68;96184.02;617601;229;67296;-68
2021/12/29 11:20:26;;;;;;;;;;;;;;;25.43;60.80;96189.09;617483;228;67018;-68
2021/12/29 11:22:55;;;;;;;;;;;;;;;25.43;60.72;96192.56;617564;229;63807;-68
2021/12/29 11:25:27;;;;;;;;;;;;;;;25.43;60.71;96187.18;617320;228;67194;-68
2021/12/29 11:27:55;;;;;;;;;;;;;;;25.43;61.31;96191.78;617670;229;67023;-69
2021/12/29 11:30:22;;;;;;;;;;;;;;;25.43;61.07;96189.87;617447;229;65049;-69
2021/12/29 11:32:51;;;;;;;;;;;;;;;25.44;60.29;96196.03;617565;229;67138;-69
2021/12/29 11:35:23;;;;;;;;;;;;;;;25.45;60.46;96184.16;617589;229;65060;-68
2021/12/29 11:37:52;;;;;;;;;;;;;;;25.45;60.70;96182.28;617596;229;65317;-69
2021/12/29 11:40:21;;;;;;;;;;;;;;;25.47;61.12;96182.73;617552;229;67155;-69
2021/12/29 11:42:49;;;;;;;;;;;;;;;25.47;60.14;96180.03;617621;229;65082;-66
2021/12/29 11:45:17;;;;;;;;;;;;;;;25.45;60.80;96174.21;617618;229;63039;-69
2021/12/29 11:47:47;;;;;;;;;;;;;;;25.49;60.92;96178.95;617613;228;49461;-70
2021/12/29 11:50:19;;;;;;;;;;;;;;;25.49;60.27;96177.05;617793;229;64825;-69
2021/12/29 11:53:05;;;;;;;;;;;;;;;25.50;60.50;96181.30;618278;228;65157;-72
2021/12/29 11:55:34;;;;;;;;;;;;;;;25.51;60.24;96171.33;618705;229;67001;-72
2021/12/29 11:58:09;;;;;;;;;;;;;;;25.50;60.42;96177.83;618756;229;64575;-71
2021/12/29 12:00:37;;;;;;;;;;;;;;;25.53;60.81;96185.25;618388;228;62995;-69
2021/12/29 12:03:14;;;;;;;;;;;;;;;25.52;61.23;96178.30;618700;229;64691;-70
2021/12/29 12:05:49;;;;;;;;;;;;;;;25.51;60.33;96176.70;618685;229;67553;-67
2021/12/29 12:08:18;;;;;;;;;;;;;;;25.46;58.58;96175.78;618654;229;65113;-68
2021/12/29 12:10:46;;;;;;;;;;;;;;;25.52;59.46;96180.99;618695;228;67222;-68
2021/12/29 12:13:27;;;;;;;;;;;;;;;25.50;59.99;96175.13;618713;229;66887;-72
2021/12/29 12:16:08;;;;;;;;;;;;;;;25.50;60.23;96175.13;618638;229;65044;-70
2021/12/29 12:18:43;;;;;;;;;;;;;;;25.51;59.92;96176.70;618669;229;65028;-66
2021/12/29 12:21:12;;;;;;;;;;;;;;;25.52;60.16;96171.02;618424;228;64921;-70
2021/12/29 12:23:40;;;;;;;;;;;;;;;25.54;60.39;96171.49;618453;228;65091;-69
2021/12/29 12:26:10;;;;;;;;;;;;;;;25.54;60.28;96171.49;618717;229;66749;-69
2021/12/29 12:28:45;;;;;;;;;;;;;;;25.56;61.21;96173.84;618715;229;66680;-67
2021/12/29 12:31:23;;;;;;;;;;;;;;;25.57;60.22;96180.83;618704;229;62739;-68
2021/12/29 12:33:51;;;;;;;;;;;;;;;25.57;61.18;96186.20;618669;229;67462;-67
2021/12/29 12:36:19;;;;;;;;;;;;;;;25.56;60.92;96180.02;618631;229;67175;-67
2021/12/29 12:38:48;;;;;;;;;;;;;;;25.54;60.44;96181.47;618729;229;65040;-67
2021/12/29 12:41:17;;;;;;;;;;;;;;;25.56;60.76;96181.91;618714;229;67037;-69
2021/12/29 12:43:49;;;;;;;;;;;;;;;25.57;60.29;96178.13;618698;229;64315;-69
2021/12/29 12:46:18;;;;;;;;;;;;;;;25.57;59.69;96186.20;618403;228;64870;-68
2021/12/29 12:48:46;;;;;;;;;;;;;;;25.58;59.49;96179.70;618479;228;64325;-68
2021/12/29 12:51:15;;;;;;;;;;;;;;;25.59;59.85;96184.78;618582;229;66741;-68
2021/12/29 12:53:42;;;;;;;;;;;;;;;25.60;59.88;96185.56;618613;229;62740;-68
2021/12/29 12:56:14;;;;;;;;;;;;;;;25.57;59.83;96181.61;618662;229;66928;-69
2021/12/29 12:58:43;;;;;;;;;;;;;;;25.60;60.03;96188.25;618604;229;64956;-66
2021/12/29 13:01:18;;;;;;;;;;;;;;;25.59;60.20;96182.09;622721;226;62762;-67